Sundial — WDC5838 — position and weather

sailwx.info

Track history (hours):
 
Tides and Currents Weather Stations Pressure Air Temp Water Temp Dewpoint Dewpoint Depression Visibility Wind Speed Wind Dir Waves Ship Positions

Sundial

Owner: Tidewater barge Lines Inc., Vancouver, WA. More information available from US FCC via Universal Licensing System and Coast Guard Vessel Documentation Center.

Last reported at 2018-Jun-21 04:30 UTC. Time now 2018-Jun-21 04:41 UTC.
Position N 45°38' W 122°42'.

Length 31 m; draft 3.5 m.

Type: Towing. MMSI: 367047180.

Date/timePositionNaut miles runAvg speedWind from/ knotsBaromVisibWave heightAir tempDewpointWater temp
2018-Jun-21 04:30N 45°38' W 122°42'0 0.2
2018-Jun-21 04:00N 45°38' W 122°42'0 0.3
2018-Jun-21 03:25N 45°38' W 122°42'3 6.9
2018-Jun-21 03:00N 45°37' W 122°38'4 7.7
2018-Jun-21 02:28N 45°36' W 122°33'5 8.0
2018-Jun-21 01:53N 45°34' W 122°27'3 8.5
2018-Jun-21 01:30N 45°34' W 122°22'5 7.7
2018-Jun-21 00:52N 45°33' W 122°15'4 8.9
2018-Jun-21 00:28N 45°35' W 122°11'  
2018-Jun-18 15:05N 45°37' W 122°01'0 3.5
2018-Jun-18 14:57N 45°37' W 122°01'3 6.7
2018-Jun-18 14:28N 45°35' W 122°06'3 6.4
2018-Jun-18 14:01N 45°35' W 122°10'3 6.4
2018-Jun-18 13:30N 45°33' W 122°14'3 6.1
2018-Jun-18 13:00N 45°33' W 122°18'3 5.5
2018-Jun-18 12:29N 45°34' W 122°22'2 4.7
2018-Jun-18 12:00N 45°34' W 122°25'3 5.2
2018-Jun-18 11:30N 45°35' W 122°28'3 5.7
2018-Jun-18 11:00N 45°36' W 122°32'3 5.6
2018-Jun-18 10:30N 45°36' W 122°36'3 5.7
2018-Jun-18 10:00N 45°37' W 122°40'2 3.2
2018-Jun-18 09:19N 45°38' W 122°43'1 1.9
2018-Jun-18 09:00N 45°38' W 122°44'1 1.4
2018-Jun-18 08:31N 45°39' W 122°44'0 0.0
2018-Jun-18 08:00N 45°39' W 122°44'0 0.0
2018-Jun-18 07:30N 45°39' W 122°44'0 0.0
2018-Jun-18 06:59N 45°39' W 122°44'0 0.7
2018-Jun-18 06:30N 45°38' W 122°44'0 0.0
2018-Jun-18 06:00N 45°38' W 122°44'3 5.5
2018-Jun-18 05:30N 45°37' W 122°41'3 6.9
2018-Jun-18 05:01N 45°36' W 122°36'4 7.4
2018-Jun-18 04:30N 45°35' W 122°31'4 7.4
2018-Jun-18 04:00N 45°34' W 122°26'4 7.4
2018-Jun-18 03:30N 45°34' W 122°21'4 7.3
2018-Jun-18 03:00N 45°33' W 122°16'5 7.3
2018-Jun-18 02:22N 45°35' W 122°10'3 6.8
2018-Jun-18 01:58N 45°35' W 122°06'  
2018-Jun-13 11:10N 45°37' W 122°02'1 5.1
2018-Jun-13 10:59N 45°36' W 122°03'4 7.0
2018-Jun-13 10:28N 45°35' W 122°08'3 6.9
2018-Jun-13 10:00N 45°34' W 122°12'3 6.7
2018-Jun-13 09:30N 45°33' W 122°16'3 6.4
2018-Jun-13 09:00N 45°34' W 122°21'2 4.8
2018-Jun-13 08:30N 45°34' W 122°24'3 5.5
2018-Jun-13 08:00N 45°34' W 122°28'3 5.9
2018-Jun-13 07:30N 45°35' W 122°32'3 5.9
2018-Jun-13 07:00N 45°36' W 122°36'3 5.8
2018-Jun-13 06:31N 45°37' W 122°40'3 5.3
2018-Jun-13 06:00N 45°38' W 122°43'1 2.1
2018-Jun-13 05:28N 45°39' W 122°44'0 0.0
2018-Jun-13 04:52N 45°39' W 122°44'0 0.0
2018-Jun-13 04:26N 45°39' W 122°44'0 0.6
2018-Jun-13 03:48N 45°38' W 122°44'2 5.7
2018-Jun-13 03:29N 45°38' W 122°42'4 9.2
2018-Jun-13 03:00N 45°36' W 122°36'5 9.2
2018-Jun-13 02:30N 45°35' W 122°30'4 8.9
2018-Jun-13 01:59N 45°35' W 122°23'5 9.1
2018-Jun-13 01:30N 45°33' W 122°17'4 9.1
2018-Jun-13 01:00N 45°34' W 122°12'4 8.4
2018-Jun-13 00:29N 45°35' W 122°05'  
Track history (hours):
 
Tides and Currents Weather Stations Pressure Air Temp Water Temp Dewpoint Dewpoint Depression Visibility Wind Speed Wind Dir Waves Ship Positions

Sundial

Owner: Tidewater barge Lines Inc., Vancouver, WA. More information available from US FCC via Universal Licensing System and Coast Guard Vessel Documentation Center.

Last reported at 2018-Jun-21 04:30 UTC. Time now 2018-Jun-21 04:41 UTC.
Position N 45°38' W 122°42'.

Length 31 m; draft 3.5 m.

Type: Towing. MMSI: 367047180.

Date/timePositionNaut miles runAvg speedWind from/ knotsBaromVisibWave heightAir tempDewpointWater temp
2018-Jun-21 04:30N 45°38' W 122°42'0 0.2
2018-Jun-21 04:00N 45°38' W 122°42'0 0.3
2018-Jun-21 03:25N 45°38' W 122°42'3 6.9
2018-Jun-21 03:00N 45°37' W 122°38'4 7.7
2018-Jun-21 02:28N 45°36' W 122°33'5 8.0
2018-Jun-21 01:53N 45°34' W 122°27'3 8.5
2018-Jun-21 01:30N 45°34' W 122°22'5 7.7
2018-Jun-21 00:52N 45°33' W 122°15'4 8.9
2018-Jun-21 00:28N 45°35' W 122°11'  
2018-Jun-18 15:05N 45°37' W 122°01'0 3.5
2018-Jun-18 14:57N 45°37' W 122°01'3 6.7
2018-Jun-18 14:28N 45°35' W 122°06'3 6.4
2018-Jun-18 14:01N 45°35' W 122°10'3 6.4
2018-Jun-18 13:30N 45°33' W 122°14'3 6.1
2018-Jun-18 13:00N 45°33' W 122°18'3 5.5
2018-Jun-18 12:29N 45°34' W 122°22'2 4.7
2018-Jun-18 12:00N 45°34' W 122°25'3 5.2
2018-Jun-18 11:30N 45°35' W 122°28'3 5.7
2018-Jun-18 11:00N 45°36' W 122°32'3 5.6
2018-Jun-18 10:30N 45°36' W 122°36'3 5.7
2018-Jun-18 10:00N 45°37' W 122°40'2 3.2
2018-Jun-18 09:19N 45°38' W 122°43'1 1.9
2018-Jun-18 09:00N 45°38' W 122°44'1 1.4
2018-Jun-18 08:31N 45°39' W 122°44'0 0.0
2018-Jun-18 08:00N 45°39' W 122°44'0 0.0
2018-Jun-18 07:30N 45°39' W 122°44'0 0.0
2018-Jun-18 06:59N 45°39' W 122°44'0 0.7
2018-Jun-18 06:30N 45°38' W 122°44'0 0.0
2018-Jun-18 06:00N 45°38' W 122°44'3 5.5
2018-Jun-18 05:30N 45°37' W 122°41'3 6.9
2018-Jun-18 05:01N 45°36' W 122°36'4 7.4
2018-Jun-18 04:30N 45°35' W 122°31'4 7.4
2018-Jun-18 04:00N 45°34' W 122°26'4 7.4
2018-Jun-18 03:30N 45°34' W 122°21'4 7.3
2018-Jun-18 03:00N 45°33' W 122°16'5 7.3
2018-Jun-18 02:22N 45°35' W 122°10'3 6.8
2018-Jun-18 01:58N 45°35' W 122°06'  
2018-Jun-13 11:10N 45°37' W 122°02'1 5.1
2018-Jun-13 10:59N 45°36' W 122°03'4 7.0
2018-Jun-13 10:28N 45°35' W 122°08'3 6.9
2018-Jun-13 10:00N 45°34' W 122°12'3 6.7
2018-Jun-13 09:30N 45°33' W 122°16'3 6.4
2018-Jun-13 09:00N 45°34' W 122°21'2 4.8
2018-Jun-13 08:30N 45°34' W 122°24'3 5.5
2018-Jun-13 08:00N 45°34' W 122°28'3 5.9
2018-Jun-13 07:30N 45°35' W 122°32'3 5.9
2018-Jun-13 07:00N 45°36' W 122°36'3 5.8
2018-Jun-13 06:31N 45°37' W 122°40'3 5.3
2018-Jun-13 06:00N 45°38' W 122°43'1 2.1
2018-Jun-13 05:28N 45°39' W 122°44'0 0.0
2018-Jun-13 04:52N 45°39' W 122°44'0 0.0
2018-Jun-13 04:26N 45°39' W 122°44'0 0.6
2018-Jun-13 03:48N 45°38' W 122°44'2 5.7
2018-Jun-13 03:29N 45°38' W 122°42'4 9.2
2018-Jun-13 03:00N 45°36' W 122°36'5 9.2
2018-Jun-13 02:30N 45°35' W 122°30'4 8.9
2018-Jun-13 01:59N 45°35' W 122°23'5 9.1
2018-Jun-13 01:30N 45°33' W 122°17'4 9.1
2018-Jun-13 01:00N 45°34' W 122°12'4 8.4
2018-Jun-13 00:29N 45°35' W 122°05'  

Dump ship's entire track history